Impacts TAF Board
For situational awareness. Not to be used for flight planning purposes.
IDs:

KPIT - Pittsburgh Intl, PA, US

Issued at 1735 UTC 18 Jun 2019
Updated at 1839 UTC 18 Jun 2019
Potential Impact None Slight Moderate High
Time1751Z 18/19Z 18/20Z 18/21Z 18/22Z 18/23Z 19/00Z 19/01Z 19/02Z 19/03Z 19/04Z 19/05Z 19/06Z 19/07Z>>
Type OBS PRVL PRVL PRVL PRVL PRVL PRVL PRVL PRVL PRVL PRVL PRVL PRVL PRVL
VIS 10 >6 >6 >6 >6 >6 >6 >6 >6 >6 >6 >6 >6 >6
CIG 55 35 35 35 35 35 35 35 35 35 35 35 7 7
Cover OVC OVC OVC OVC OVC OVC OVC OVC OVC OVC OVC OVC BKN BKN
FltCat VFR VFR VFR VFR VFR VFR VFR VFR VFR VFR VFR VFR IFR IFR
WX -- VCSH VCSH VCSH VCSH VCSH VCSH VCSH VCSH VCSH VCSH VCSH VCSH VCSH
WDir 210 240 240 240 240 240 240 240 240 240 240 240 VRB VRB
WSpd 7 6 6 6 6 6 6 6 6 6 6 6 0 0
WGst -- -- -- -- -- -- -- -- -- -- -- -- -- --
Raw TAF
KPIT 181735Z 1818/1924 24006KT P6SM VCSH OVC035
  FM190600 00000KT P6SM VCSH BKN007
  FM191600 00000KT P6SM VCSH BKN012
  FM192100 32003KT P6SM VCSH BKN025


Raw METAR
KPIT 181751Z 21007KT 10SM FEW018 BKN055 OVC130 23/18 A2995 RMK AO2 SLP140 60007 T02280183 10233 20183 56012
KPIT 181711Z 24007KT 10SM SCT021 BKN046 OVC100 23/19 A2996 RMK AO2 T02330189
KPIT 181651Z 24006KT 10SM SCT017 BKN029 OVC046 23/18 A2996 RMK AO2 SLP145 T02280183
KPIT 181610Z 00000KT 10SM SCT017 BKN028 BKN100 23/19 A2997 RMK AO2 T02330189
KPIT 181551Z VRB05KT 10SM SCT017 BKN100 BKN220 23/18 A2996 RMK AO2 SLP146 T02280183

METAR Board
Radar Display
Forecast Discussion
For situational awareness. Not to be used for flight planning purposes.